sensor_id;sensor_type;location;lat;lon;timestamp;temperature;humidity
9666;DHT22;4871;52.004;5.924;2023-06-14T00:00:00;21.3;33.8
9666;DHT22;4871;52.004;5.924;2023-06-14T00:01:02;21.2;33.9
9666;DHT22;4871;52.004;5.924;2023-06-14T00:02:00;21.2;33.8
9666;DHT22;4871;52.004;5.924;2023-06-14T00:03:00;21.2;33.9
9666;DHT22;4871;52.004;5.924;2023-06-14T00:04:01;21.1;34.3
9666;DHT22;4871;52.004;5.924;2023-06-14T00:05:00;21.1;34.2
9666;DHT22;4871;52.004;5.924;2023-06-14T00:06:00;21.1;34.2
9666;DHT22;4871;52.004;5.924;2023-06-14T00:07:00;21.1;34.2
9666;DHT22;4871;52.004;5.924;2023-06-14T00:08:00;21.1;34.2
9666;DHT22;4871;52.004;5.924;2023-06-14T00:09:00;21.0;34.4
9666;DHT22;4871;52.004;5.924;2023-06-14T00:10:00;21.1;34.5
9666;DHT22;4871;52.004;5.924;2023-06-14T00:11:00;21.1;34.4
9666;DHT22;4871;52.004;5.924;2023-06-14T00:12:00;21.0;34.4
9666;DHT22;4871;52.004;5.924;2023-06-14T00:13:00;21.0;34.4
9666;DHT22;4871;52.004;5.924;2023-06-14T00:14:00;21.0;34.5
9666;DHT22;4871;52.004;5.924;2023-06-14T00:15:02;20.9;34.7
9666;DHT22;4871;52.004;5.924;2023-06-14T00:16:00;21.0;34.5
9666;DHT22;4871;52.004;5.924;2023-06-14T00:17:01;20.9;34.7
9666;DHT22;4871;52.004;5.924;2023-06-14T00:18:01;21.0;34.7
9666;DHT22;4871;52.004;5.924;2023-06-14T00:19:00;21.0;34.5
9666;DHT22;4871;52.004;5.924;2023-06-14T00:20:02;21.0;34.4
9666;DHT22;4871;52.004;5.924;2023-06-14T00:21:02;20.9;34.4
9666;DHT22;4871;52.004;5.924;2023-06-14T00:22:00;20.9;34.6
9666;DHT22;4871;52.004;5.924;2023-06-14T00:23:00;20.9;34.9
9666;DHT22;4871;52.004;5.924;2023-06-14T00:24:00;20.9;34.8
9666;DHT22;4871;52.004;5.924;2023-06-14T00:25:00;20.9;34.7
9666;DHT22;4871;52.004;5.924;2023-06-14T00:26:00;20.9;34.8
9666;DHT22;4871;52.004;5.924;2023-06-14T00:27:00;20.9;34.7
9666;DHT22;4871;52.004;5.924;2023-06-14T00:28:00;20.8;34.9
9666;DHT22;4871;52.004;5.924;2023-06-14T00:29:00;20.8;34.9
9666;DHT22;4871;52.004;5.924;2023-06-14T00:30:00;20.8;35.0
9666;DHT22;4871;52.004;5.924;2023-06-14T00:31:00;20.8;35.1
9666;DHT22;4871;52.004;5.924;2023-06-14T00:32:00;20.7;35.1
9666;DHT22;4871;52.004;5.924;2023-06-14T00:33:00;20.7;35.1
9666;DHT22;4871;52.004;5.924;2023-06-14T00:34:00;20.7;34.9
9666;DHT22;4871;52.004;5.924;2023-06-14T00:35:00;20.7;35.2
9666;DHT22;4871;52.004;5.924;2023-06-14T00:36:00;20.6;35.5
9666;DHT22;4871;52.004;5.924;2023-06-14T00:37:00;20.6;35.3
9666;DHT22;4871;52.004;5.924;2023-06-14T00:38:00;20.7;35.3
9666;DHT22;4871;52.004;5.924;2023-06-14T00:39:00;20.7;35.4
9666;DHT22;4871;52.004;5.924;2023-06-14T00:40:00;20.7;35.3
9666;DHT22;4871;52.004;5.924;2023-06-14T00:41:00;20.6;35.2
9666;DHT22;4871;52.004;5.924;2023-06-14T00:42:00;20.6;35.4
9666;DHT22;4871;52.004;5.924;2023-06-14T00:43:00;20.6;35.3
9666;DHT22;4871;52.004;5.924;2023-06-14T00:44:00;20.6;35.3
9666;DHT22;4871;52.004;5.924;2023-06-14T00:45:00;20.6;35.6
9666;DHT22;4871;52.004;5.924;2023-06-14T00:46:00;20.6;35.7
9666;DHT22;4871;52.004;5.924;2023-06-14T00:47:00;20.5;35.4
9666;DHT22;4871;52.004;5.924;2023-06-14T00:48:00;20.5;35.6
9666;DHT22;4871;52.004;5.924;2023-06-14T00:49:01;20.5;35.7
9666;DHT22;4871;52.004;5.924;2023-06-14T00:50:00;20.5;35.4
9666;DHT22;4871;52.004;5.924;2023-06-14T00:51:02;20.5;35.7
9666;DHT22;4871;52.004;5.924;2023-06-14T00:52:00;20.5;35.7
9666;DHT22;4871;52.004;5.924;2023-06-14T00:53:01;20.5;35.5
9666;DHT22;4871;52.004;5.924;2023-06-14T00:54:00;20.5;35.6
9666;DHT22;4871;52.004;5.924;2023-06-14T00:55:00;20.4;35.7
9666;DHT22;4871;52.004;5.924;2023-06-14T00:56:00;20.4;35.8
9666;DHT22;4871;52.004;5.924;2023-06-14T00:57:00;20.5;35.4
9666;DHT22;4871;52.004;5.924;2023-06-14T00:58:00;20.4;35.5
9666;DHT22;4871;52.004;5.924;2023-06-14T00:59:00;20.4;35.6
9666;DHT22;4871;52.004;5.924;2023-06-14T01:00:00;20.4;35.6
9666;DHT22;4871;52.004;5.924;2023-06-14T01:01:00;20.4;35.9
9666;DHT22;4871;52.004;5.924;2023-06-14T01:02:00;20.4;35.9
9666;DHT22;4871;52.004;5.924;2023-06-14T01:03:01;20.4;35.8
9666;DHT22;4871;52.004;5.924;2023-06-14T01:04:01;20.4;35.7
9666;DHT22;4871;52.004;5.924;2023-06-14T01:05:01;20.3;35.9
9666;DHT22;4871;52.004;5.924;2023-06-14T01:06:07;20.3;35.7
9666;DHT22;4871;52.004;5.924;2023-06-14T01:07:07;20.3;35.7
9666;DHT22;4871;52.004;5.924;2023-06-14T01:08:15;20.3;35.4
9666;DHT22;4871;52.004;5.924;2023-06-14T01:09:16;20.3;35.4
9666;DHT22;4871;52.004;5.924;2023-06-14T01:10:15;20.3;35.8
9666;DHT22;4871;52.004;5.924;2023-06-14T01:11:02;20.3;35.9
9666;DHT22;4871;52.004;5.924;2023-06-14T01:12:07;20.3;35.9
9666;DHT22;4871;52.004;5.924;2023-06-14T01:13:06;20.2;35.7
9666;DHT22;4871;52.004;5.924;2023-06-14T01:14:02;20.2;36.1
9666;DHT22;4871;52.004;5.924;2023-06-14T01:15:00;20.2;36.2
9666;DHT22;4871;52.004;5.924;2023-06-14T01:16:01;20.1;36.3
9666;DHT22;4871;52.004;5.924;2023-06-14T01:17:01;20.2;36.2
9666;DHT22;4871;52.004;5.924;2023-06-14T01:18:05;20.2;36.1
9666;DHT22;4871;52.004;5.924;2023-06-14T01:19:02;20.2;36.1
9666;DHT22;4871;52.004;5.924;2023-06-14T01:20:01;20.1;36.1
9666;DHT22;4871;52.004;5.924;2023-06-14T01:21:03;20.1;36.1
9666;DHT22;4871;52.004;5.924;2023-06-14T01:22:01;20.1;36.2
9666;DHT22;4871;52.004;5.924;2023-06-14T01:23:00;20.1;36.2
9666;DHT22;4871;52.004;5.924;2023-06-14T01:24:03;20.1;36.2
9666;DHT22;4871;52.004;5.924;2023-06-14T01:25:00;20.1;36.3
9666;DHT22;4871;52.004;5.924;2023-06-14T01:26:03;20.0;36.2
9666;DHT22;4871;52.004;5.924;2023-06-14T01:27:01;20.0;36.1
9666;DHT22;4871;52.004;5.924;2023-06-14T01:28:02;20.0;36.3
9666;DHT22;4871;52.004;5.924;2023-06-14T01:29:00;20.0;36.4
9666;DHT22;4871;52.004;5.924;2023-06-14T01:30:03;20.0;36.2
9666;DHT22;4871;52.004;5.924;2023-06-14T01:31:03;20.0;36.3
9666;DHT22;4871;52.004;5.924;2023-06-14T01:32:00;20.0;36.4
9666;DHT22;4871;52.004;5.924;2023-06-14T01:33:00;19.9;36.5
9666;DHT22;4871;52.004;5.924;2023-06-14T01:34:00;19.9;36.6
9666;DHT22;4871;52.004;5.924;2023-06-14T01:35:00;19.9;36.6
9666;DHT22;4871;52.004;5.924;2023-06-14T01:36:01;19.9;36.3
9666;DHT22;4871;52.004;5.924;2023-06-14T01:37:01;19.9;36.7
9666;DHT22;4871;52.004;5.924;2023-06-14T01:38:01;19.9;36.6
9666;DHT22;4871;52.004;5.924;2023-06-14T01:39:00;19.9;36.6
9666;DHT22;4871;52.004;5.924;2023-06-14T01:40:01;19.9;36.5
9666;DHT22;4871;52.004;5.924;2023-06-14T01:41:00;19.8;36.5
9666;DHT22;4871;52.004;5.924;2023-06-14T01:42:00;19.8;36.7
9666;DHT22;4871;52.004;5.924;2023-06-14T01:43:01;19.8;36.6
9666;DHT22;4871;52.004;5.924;2023-06-14T01:44:00;19.8;36.8
9666;DHT22;4871;52.004;5.924;2023-06-14T01:45:00;19.8;36.6
9666;DHT22;4871;52.004;5.924;2023-06-14T01:46:00;19.8;36.6
9666;DHT22;4871;52.004;5.924;2023-06-14T01:47:00;19.8;36.8
9666;DHT22;4871;52.004;5.924;2023-06-14T01:48:00;19.8;36.7
9666;DHT22;4871;52.004;5.924;2023-06-14T01:49:00;19.8;36.8
9666;DHT22;4871;52.004;5.924;2023-06-14T01:50:00;19.8;36.8
9666;DHT22;4871;52.004;5.924;2023-06-14T01:51:00;19.7;36.6
9666;DHT22;4871;52.004;5.924;2023-06-14T01:52:00;19.7;36.9
9666;DHT22;4871;52.004;5.924;2023-06-14T01:53:00;19.7;36.7
9666;DHT22;4871;52.004;5.924;2023-06-14T01:54:00;19.7;36.9
9666;DHT22;4871;52.004;5.924;2023-06-14T01:55:03;19.7;37.0
9666;DHT22;4871;52.004;5.924;2023-06-14T01:56:01;19.6;37.0
9666;DHT22;4871;52.004;5.924;2023-06-14T01:57:00;19.6;37.2
9666;DHT22;4871;52.004;5.924;2023-06-14T01:58:00;19.6;37.1
9666;DHT22;4871;52.004;5.924;2023-06-14T01:59:00;19.6;37.2
9666;DHT22;4871;52.004;5.924;2023-06-14T02:00:00;19.6;37.0
9666;DHT22;4871;52.004;5.924;2023-06-14T02:01:00;19.6;37.1
9666;DHT22;4871;52.004;5.924;2023-06-14T02:02:01;19.6;37.0
9666;DHT22;4871;52.004;5.924;2023-06-14T02:03:00;19.6;37.0
9666;DHT22;4871;52.004;5.924;2023-06-14T02:04:00;19.6;37.1
9666;DHT22;4871;52.004;5.924;2023-06-14T02:05:00;19.6;37.1
9666;DHT22;4871;52.004;5.924;2023-06-14T02:06:00;19.6;37.2
9666;DHT22;4871;52.004;5.924;2023-06-14T02:07:00;19.6;37.1
9666;DHT22;4871;52.004;5.924;2023-06-14T02:08:00;19.5;37.1
9666;DHT22;4871;52.004;5.924;2023-06-14T02:09:00;19.5;37.0
9666;DHT22;4871;52.004;5.924;2023-06-14T02:10:00;19.5;37.3
9666;DHT22;4871;52.004;5.924;2023-06-14T02:11:00;19.5;37.3
9666;DHT22;4871;52.004;5.924;2023-06-14T02:12:00;19.5;37.0
9666;DHT22;4871;52.004;5.924;2023-06-14T02:13:00;19.5;37.4
9666;DHT22;4871;52.004;5.924;2023-06-14T02:14:01;19.5;37.3
9666;DHT22;4871;52.004;5.924;2023-06-14T02:15:00;19.5;37.2
9666;DHT22;4871;52.004;5.924;2023-06-14T02:16:00;19.5;37.2
9666;DHT22;4871;52.004;5.924;2023-06-14T02:17:01;19.5;37.3
9666;DHT22;4871;52.004;5.924;2023-06-14T02:18:00;19.4;37.4
9666;DHT22;4871;52.004;5.924;2023-06-14T02:19:00;19.4;37.4
9666;DHT22;4871;52.004;5.924;2023-06-14T02:20:00;19.4;37.2
9666;DHT22;4871;52.004;5.924;2023-06-14T02:21:00;19.4;37.4
9666;DHT22;4871;52.004;5.924;2023-06-14T02:22:00;19.4;37.4
9666;DHT22;4871;52.004;5.924;2023-06-14T02:23:00;19.4;37.3
9666;DHT22;4871;52.004;5.924;2023-06-14T02:24:01;19.4;37.6
9666;DHT22;4871;52.004;5.924;2023-06-14T02:25:00;19.3;37.7
9666;DHT22;4871;52.004;5.924;2023-06-14T02:26:00;19.4;37.6
9666;DHT22;4871;52.004;5.924;2023-06-14T02:27:01;19.4;37.8
9666;DHT22;4871;52.004;5.924;2023-06-14T02:28:00;19.4;37.7
9666;DHT22;4871;52.004;5.924;2023-06-14T02:29:00;19.4;37.6
9666;DHT22;4871;52.004;5.924;2023-06-14T02:30:00;19.3;37.6
9666;DHT22;4871;52.004;5.924;2023-06-14T02:31:00;19.3;37.7
9666;DHT22;4871;52.004;5.924;2023-06-14T02:32:00;19.3;37.8
9666;DHT22;4871;52.004;5.924;2023-06-14T02:33:00;19.3;37.8
9666;DHT22;4871;52.004;5.924;2023-06-14T02:34:00;19.3;37.7
9666;DHT22;4871;52.004;5.924;2023-06-14T02:35:00;19.2;37.8
9666;DHT22;4871;52.004;5.924;2023-06-14T02:36:01;19.3;38.0
9666;DHT22;4871;52.004;5.924;2023-06-14T02:37:00;19.3;37.5
9666;DHT22;4871;52.004;5.924;2023-06-14T02:38:00;19.2;37.8
9666;DHT22;4871;52.004;5.924;2023-06-14T02:39:00;19.2;37.8
9666;DHT22;4871;52.004;5.924;2023-06-14T02:40:00;19.2;38.0
9666;DHT22;4871;52.004;5.924;2023-06-14T02:41:01;19.2;37.9
9666;DHT22;4871;52.004;5.924;2023-06-14T02:42:00;19.2;37.9
9666;DHT22;4871;52.004;5.924;2023-06-14T02:43:00;19.2;37.8
9666;DHT22;4871;52.004;5.924;2023-06-14T02:44:00;19.2;38.0
9666;DHT22;4871;52.004;5.924;2023-06-14T02:45:00;19.2;37.8
9666;DHT22;4871;52.004;5.924;2023-06-14T02:46:00;19.2;37.9
9666;DHT22;4871;52.004;5.924;2023-06-14T02:47:00;19.2;37.6
9666;DHT22;4871;52.004;5.924;2023-06-14T02:48:00;19.2;37.8
9666;DHT22;4871;52.004;5.924;2023-06-14T02:49:00;19.2;37.7
9666;DHT22;4871;52.004;5.924;2023-06-14T02:50:00;19.2;37.6
9666;DHT22;4871;52.004;5.924;2023-06-14T02:51:00;19.2;37.7
9666;DHT22;4871;52.004;5.924;2023-06-14T02:52:00;19.2;37.6
9666;DHT22;4871;52.004;5.924;2023-06-14T02:53:00;19.2;37.7
9666;DHT22;4871;52.004;5.924;2023-06-14T02:54:00;19.1;37.8
9666;DHT22;4871;52.004;5.924;2023-06-14T02:55:00;19.1;37.9
9666;DHT22;4871;52.004;5.924;2023-06-14T02:56:01;19.1;38.0
9666;DHT22;4871;52.004;5.924;2023-06-14T02:57:00;19.1;37.9
9666;DHT22;4871;52.004;5.924;2023-06-14T02:58:00;19.0;38.0
9666;DHT22;4871;52.004;5.924;2023-06-14T02:59:00;19.1;37.9
9666;DHT22;4871;52.004;5.924;2023-06-14T03:00:00;19.0;38.0
9666;DHT22;4871;52.004;5.924;2023-06-14T03:01:04;19.0;37.9
9666;DHT22;4871;52.004;5.924;2023-06-14T03:02:00;19.0;37.9
9666;DHT22;4871;52.004;5.924;2023-06-14T03:03:01;19.0;38.0
9666;DHT22;4871;52.004;5.924;2023-06-14T03:04:00;19.0;38.2
9666;DHT22;4871;52.004;5.924;2023-06-14T03:05:01;19.0;37.9
9666;DHT22;4871;52.004;5.924;2023-06-14T03:06:04;19.0;38.0
9666;DHT22;4871;52.004;5.924;2023-06-14T03:07:03;19.0;38.0
9666;DHT22;4871;52.004;5.924;2023-06-14T03:08:00;19.0;37.9
9666;DHT22;4871;52.004;5.924;2023-06-14T03:09:01;18.9;38.3
9666;DHT22;4871;52.004;5.924;2023-06-14T03:10:00;18.9;38.2
9666;DHT22;4871;52.004;5.924;2023-06-14T03:11:02;18.9;38.3
9666;DHT22;4871;52.004;5.924;2023-06-14T03:12:00;18.9;38.4
9666;DHT22;4871;52.004;5.924;2023-06-14T03:13:01;18.9;38.4
9666;DHT22;4871;52.004;5.924;2023-06-14T03:14:00;18.9;38.5
9666;DHT22;4871;52.004;5.924;2023-06-14T03:15:05;18.9;38.4
9666;DHT22;4871;52.004;5.924;2023-06-14T03:16:02;18.9;38.4
9666;DHT22;4871;52.004;5.924;2023-06-14T03:17:00;18.9;38.5
9666;DHT22;4871;52.004;5.924;2023-06-14T03:18:00;18.9;38.5
9666;DHT22;4871;52.004;5.924;2023-06-14T03:19:00;18.9;38.4
9666;DHT22;4871;52.004;5.924;2023-06-14T03:20:00;18.8;38.3
9666;DHT22;4871;52.004;5.924;2023-06-14T03:21:00;18.8;38.3
9666;DHT22;4871;52.004;5.924;2023-06-14T03:22:00;18.8;38.7
9666;DHT22;4871;52.004;5.924;2023-06-14T03:23:01;18.8;38.6
9666;DHT22;4871;52.004;5.924;2023-06-14T03:24:00;18.8;38.6
9666;DHT22;4871;52.004;5.924;2023-06-14T03:25:00;18.8;38.7
9666;DHT22;4871;52.004;5.924;2023-06-14T03:26:00;18.8;38.8
9666;DHT22;4871;52.004;5.924;2023-06-14T03:27:00;18.8;38.5
9666;DHT22;4871;52.004;5.924;2023-06-14T03:28:00;18.7;38.7
9666;DHT22;4871;52.004;5.924;2023-06-14T03:29:00;18.7;38.7
9666;DHT22;4871;52.004;5.924;2023-06-14T03:30:00;18.7;38.6
9666;DHT22;4871;52.004;5.924;2023-06-14T03:31:01;18.7;38.6
9666;DHT22;4871;52.004;5.924;2023-06-14T03:32:01;18.8;38.6
9666;DHT22;4871;52.004;5.924;2023-06-14T03:33:01;18.8;38.6
9666;DHT22;4871;52.004;5.924;2023-06-14T03:34:00;18.8;38.6
9666;DHT22;4871;52.004;5.924;2023-06-14T03:35:00;18.7;38.5
9666;DHT22;4871;52.004;5.924;2023-06-14T03:36:01;18.7;38.8
9666;DHT22;4871;52.004;5.924;2023-06-14T03:37:00;18.7;38.8
9666;DHT22;4871;52.004;5.924;2023-06-14T03:38:00;18.7;38.7
9666;DHT22;4871;52.004;5.924;2023-06-14T03:39:00;18.7;38.6
9666;DHT22;4871;52.004;5.924;2023-06-14T03:40:01;18.7;38.8
9666;DHT22;4871;52.004;5.924;2023-06-14T03:41:00;18.6;38.8
9666;DHT22;4871;52.004;5.924;2023-06-14T03:42:00;18.6;38.6
9666;DHT22;4871;52.004;5.924;2023-06-14T03:43:00;18.6;39.0
9666;DHT22;4871;52.004;5.924;2023-06-14T03:44:00;18.6;39.0
9666;DHT22;4871;52.004;5.924;2023-06-14T03:45:00;18.6;38.9
9666;DHT22;4871;52.004;5.924;2023-06-14T03:46:00;18.6;38.9
9666;DHT22;4871;52.004;5.924;2023-06-14T03:47:00;18.6;38.9
9666;DHT22;4871;52.004;5.924;2023-06-14T03:48:00;18.6;38.8
9666;DHT22;4871;52.004;5.924;2023-06-14T03:49:00;18.6;38.9
9666;DHT22;4871;52.004;5.924;2023-06-14T03:50:01;18.6;38.9
9666;DHT22;4871;52.004;5.924;2023-06-14T03:51:00;18.6;38.8
9666;DHT22;4871;52.004;5.924;2023-06-14T03:52:00;18.6;39.0
9666;DHT22;4871;52.004;5.924;2023-06-14T03:53:01;18.6;39.0
9666;DHT22;4871;52.004;5.924;2023-06-14T03:54:00;18.6;39.0
9666;DHT22;4871;52.004;5.924;2023-06-14T03:55:00;18.6;38.9
9666;DHT22;4871;52.004;5.924;2023-06-14T03:56:00;18.6;39.0
9666;DHT22;4871;52.004;5.924;2023-06-14T03:57:00;18.6;39.0
9666;DHT22;4871;52.004;5.924;2023-06-14T03:58:00;18.6;39.0
9666;DHT22;4871;52.004;5.924;2023-06-14T03:59:00;18.6;38.9
9666;DHT22;4871;52.004;5.924;2023-06-14T04:00:00;18.6;38.9
9666;DHT22;4871;52.004;5.924;2023-06-14T04:01:00;18.6;38.8
9666;DHT22;4871;52.004;5.924;2023-06-14T04:02:01;18.5;39.1
9666;DHT22;4871;52.004;5.924;2023-06-14T04:03:00;18.5;38.9
9666;DHT22;4871;52.004;5.924;2023-06-14T04:04:01;18.5;38.9
9666;DHT22;4871;52.004;5.924;2023-06-14T04:05:00;18.6;39.1
9666;DHT22;4871;52.004;5.924;2023-06-14T04:06:00;18.5;39.2
9666;DHT22;4871;52.004;5.924;2023-06-14T04:07:00;18.5;39.2
9666;DHT22;4871;52.004;5.924;2023-06-14T04:08:01;18.5;39.3
9666;DHT22;4871;52.004;5.924;2023-06-14T04:09:02;18.5;39.2
9666;DHT22;4871;52.004;5.924;2023-06-14T04:10:00;18.5;39.2
9666;DHT22;4871;52.004;5.924;2023-06-14T04:11:00;18.5;39.2
9666;DHT22;4871;52.004;5.924;2023-06-14T04:12:00;18.5;39.2
9666;DHT22;4871;52.004;5.924;2023-06-14T04:13:00;18.5;39.0
9666;DHT22;4871;52.004;5.924;2023-06-14T04:14:01;18.5;39.2
9666;DHT22;4871;52.004;5.924;2023-06-14T04:15:01;18.5;39.2
9666;DHT22;4871;52.004;5.924;2023-06-14T04:16:00;18.5;39.4
9666;DHT22;4871;52.004;5.924;2023-06-14T04:17:00;18.5;39.3
9666;DHT22;4871;52.004;5.924;2023-06-14T04:18:00;18.5;39.3
9666;DHT22;4871;52.004;5.924;2023-06-14T04:19:00;18.5;39.1
9666;DHT22;4871;52.004;5.924;2023-06-14T04:20:00;18.5;39.4
9666;DHT22;4871;52.004;5.924;2023-06-14T04:21:00;18.5;39.4
9666;DHT22;4871;52.004;5.924;2023-06-14T04:22:02;18.5;39.3
9666;DHT22;4871;52.004;5.924;2023-06-14T04:23:15;18.5;39.3
9666;DHT22;4871;52.004;5.924;2023-06-14T04:24:02;18.5;39.3
9666;DHT22;4871;52.004;5.924;2023-06-14T04:25:00;18.5;39.3
9666;DHT22;4871;52.004;5.924;2023-06-14T04:26:02;18.5;39.3
9666;DHT22;4871;52.004;5.924;2023-06-14T04:27:01;18.5;39.5
9666;DHT22;4871;52.004;5.924;2023-06-14T04:28:00;18.5;39.4
9666;DHT22;4871;52.004;5.924;2023-06-14T04:29:01;18.5;39.4
9666;DHT22;4871;52.004;5.924;2023-06-14T04:30:04;18.5;39.3
9666;DHT22;4871;52.004;5.924;2023-06-14T04:31:01;18.5;39.4
9666;DHT22;4871;52.004;5.924;2023-06-14T04:32:02;18.5;39.4
9666;DHT22;4871;52.004;5.924;2023-06-14T04:33:00;18.5;39.4
9666;DHT22;4871;52.004;5.924;2023-06-14T04:34:00;18.5;39.4
9666;DHT22;4871;52.004;5.924;2023-06-14T04:35:02;18.5;39.3
9666;DHT22;4871;52.004;5.924;2023-06-14T04:36:00;18.5;39.6
9666;DHT22;4871;52.004;5.924;2023-06-14T04:37:01;18.5;39.4
9666;DHT22;4871;52.004;5.924;2023-06-14T04:38:00;18.5;39.4
9666;DHT22;4871;52.004;5.924;2023-06-14T04:39:00;18.6;39.4
9666;DHT22;4871;52.004;5.924;2023-06-14T04:40:00;18.6;39.3
9666;DHT22;4871;52.004;5.924;2023-06-14T04:41:01;18.5;39.3
9666;DHT22;4871;52.004;5.924;2023-06-14T04:42:00;18.5;39.3
9666;DHT22;4871;52.004;5.924;2023-06-14T04:43:01;18.6;39.3
9666;DHT22;4871;52.004;5.924;2023-06-14T04:44:01;18.5;39.4
9666;DHT22;4871;52.004;5.924;2023-06-14T04:45:00;18.5;39.5
9666;DHT22;4871;52.004;5.924;2023-06-14T04:46:01;18.5;39.6
9666;DHT22;4871;52.004;5.924;2023-06-14T04:47:00;18.5;39.3
9666;DHT22;4871;52.004;5.924;2023-06-14T04:48:00;18.5;39.8
9666;DHT22;4871;52.004;5.924;2023-06-14T04:49:02;18.5;40.0
9666;DHT22;4871;52.004;5.924;2023-06-14T04:50:03;18.5;39.9
9666;DHT22;4871;52.004;5.924;2023-06-14T04:51:00;18.5;39.7
9666;DHT22;4871;52.004;5.924;2023-06-14T04:52:01;18.5;40.1
9666;DHT22;4871;52.004;5.924;2023-06-14T04:53:00;18.5;39.6
9666;DHT22;4871;52.004;5.924;2023-06-14T04:54:01;18.5;39.8
9666;DHT22;4871;52.004;5.924;2023-06-14T04:55:00;18.5;40.1
9666;DHT22;4871;52.004;5.924;2023-06-14T04:56:01;18.5;40.3
9666;DHT22;4871;52.004;5.924;2023-06-14T04:57:00;18.5;40.3
9666;DHT22;4871;52.004;5.924;2023-06-14T04:58:00;18.6;40.1
9666;DHT22;4871;52.004;5.924;2023-06-14T04:59:00;18.6;40.0
9666;DHT22;4871;52.004;5.924;2023-06-14T05:00:05;18.6;40.1
9666;DHT22;4871;52.004;5.924;2023-06-14T05:01:02;18.6;39.8
9666;DHT22;4871;52.004;5.924;2023-06-14T05:02:02;18.7;39.7
9666;DHT22;4871;52.004;5.924;2023-06-14T05:03:01;18.6;39.5
9666;DHT22;4871;52.004;5.924;2023-06-14T05:04:00;18.6;39.9
9666;DHT22;4871;52.004;5.924;2023-06-14T05:05:01;18.6;40.2
9666;DHT22;4871;52.004;5.924;2023-06-14T05:06:00;18.7;39.8
9666;DHT22;4871;52.004;5.924;2023-06-14T05:07:01;18.7;40.0
9666;DHT22;4871;52.004;5.924;2023-06-14T05:08:00;18.7;40.0
9666;DHT22;4871;52.004;5.924;2023-06-14T05:09:00;18.8;39.6
9666;DHT22;4871;52.004;5.924;2023-06-14T05:10:00;18.9;40.1
9666;DHT22;4871;52.004;5.924;2023-06-14T05:11:00;18.9;39.8
9666;DHT22;4871;52.004;5.924;2023-06-14T05:12:00;18.9;40.1
9666;DHT22;4871;52.004;5.924;2023-06-14T05:13:00;18.9;39.9
9666;DHT22;4871;52.004;5.924;2023-06-14T05:14:00;18.9;39.4
9666;DHT22;4871;52.004;5.924;2023-06-14T05:15:00;19.0;39.4
9666;DHT22;4871;52.004;5.924;2023-06-14T05:16:00;18.9;40.1
9666;DHT22;4871;52.004;5.924;2023-06-14T05:17:00;19.0;39.7
9666;DHT22;4871;52.004;5.924;2023-06-14T05:18:00;19.0;39.8
9666;DHT22;4871;52.004;5.924;2023-06-14T05:19:01;19.1;39.8
9666;DHT22;4871;52.004;5.924;2023-06-14T05:20:00;19.1;40.0
9666;DHT22;4871;52.004;5.924;2023-06-14T05:21:00;19.2;39.9
9666;DHT22;4871;52.004;5.924;2023-06-14T05:22:00;19.2;39.4
9666;DHT22;4871;52.004;5.924;2023-06-14T05:23:01;19.2;39.7
9666;DHT22;4871;52.004;5.924;2023-06-14T05:24:00;19.3;39.7
9666;DHT22;4871;52.004;5.924;2023-06-14T05:25:00;19.4;39.3
9666;DHT22;4871;52.004;5.924;2023-06-14T05:26:02;19.4;39.6
9666;DHT22;4871;52.004;5.924;2023-06-14T05:27:00;19.4;39.8
9666;DHT22;4871;52.004;5.924;2023-06-14T05:28:00;19.4;40.2
9666;DHT22;4871;52.004;5.924;2023-06-14T05:29:01;19.5;39.6
9666;DHT22;4871;52.004;5.924;2023-06-14T05:30:00;19.5;40.2
9666;DHT22;4871;52.004;5.924;2023-06-14T05:31:00;19.6;40.3
9666;DHT22;4871;52.004;5.924;2023-06-14T05:32:00;19.6;39.3
9666;DHT22;4871;52.004;5.924;2023-06-14T05:33:00;19.7;39.7
9666;DHT22;4871;52.004;5.924;2023-06-14T05:34:00;19.8;39.1
9666;DHT22;4871;52.004;5.924;2023-06-14T05:35:00;19.8;38.9
9666;DHT22;4871;52.004;5.924;2023-06-14T05:36:00;19.9;39.3
9666;DHT22;4871;52.004;5.924;2023-06-14T05:37:00;19.9;39.3
9666;DHT22;4871;52.004;5.924;2023-06-14T05:38:00;19.9;39.3
9666;DHT22;4871;52.004;5.924;2023-06-14T05:39:02;20.0;39.4
9666;DHT22;4871;52.004;5.924;2023-06-14T05:40:00;20.1;38.8
9666;DHT22;4871;52.004;5.924;2023-06-14T05:41:00;20.1;38.6
9666;DHT22;4871;52.004;5.924;2023-06-14T05:42:00;20.2;38.6
9666;DHT22;4871;52.004;5.924;2023-06-14T05:43:00;20.3;39.0
9666;DHT22;4871;52.004;5.924;2023-06-14T05:44:00;20.3;38.4
9666;DHT22;4871;52.004;5.924;2023-06-14T05:45:00;20.4;38.5
9666;DHT22;4871;52.004;5.924;2023-06-14T05:46:00;20.4;38.7
9666;DHT22;4871;52.004;5.924;2023-06-14T05:47:00;20.4;38.6
9666;DHT22;4871;52.004;5.924;2023-06-14T05:48:00;20.5;38.6
9666;DHT22;4871;52.004;5.924;2023-06-14T05:49:00;20.6;38.3
9666;DHT22;4871;52.004;5.924;2023-06-14T05:50:00;20.6;38.1
9666;DHT22;4871;52.004;5.924;2023-06-14T05:51:00;20.7;38.2
9666;DHT22;4871;52.004;5.924;2023-06-14T05:52:00;20.8;38.3
9666;DHT22;4871;52.004;5.924;2023-06-14T05:53:00;20.8;38.6
9666;DHT22;4871;52.004;5.924;2023-06-14T05:54:00;20.8;38.2
9666;DHT22;4871;52.004;5.924;2023-06-14T05:55:00;20.9;37.9
9666;DHT22;4871;52.004;5.924;2023-06-14T05:56:00;21.0;37.6
9666;DHT22;4871;52.004;5.924;2023-06-14T05:57:01;21.1;38.1
9666;DHT22;4871;52.004;5.924;2023-06-14T05:58:00;21.1;37.6
9666;DHT22;4871;52.004;5.924;2023-06-14T05:59:00;21.2;37.7
9666;DHT22;4871;52.004;5.924;2023-06-14T06:00:00;21.3;37.4
9666;DHT22;4871;52.004;5.924;2023-06-14T06:01:01;21.3;37.8
9666;DHT22;4871;52.004;5.924;2023-06-14T06:02:00;21.4;37.5
9666;DHT22;4871;52.004;5.924;2023-06-14T06:03:00;21.5;37.4
9666;DHT22;4871;52.004;5.924;2023-06-14T06:04:00;21.6;37.1
9666;DHT22;4871;52.004;5.924;2023-06-14T06:05:00;21.7;37.3
9666;DHT22;4871;52.004;5.924;2023-06-14T06:06:00;21.7;36.7
9666;DHT22;4871;52.004;5.924;2023-06-14T06:07:00;21.8;36.7
9666;DHT22;4871;52.004;5.924;2023-06-14T06:08:00;21.9;36.8
9666;DHT22;4871;52.004;5.924;2023-06-14T06:09:00;21.9;36.9
9666;DHT22;4871;52.004;5.924;2023-06-14T06:10:00;22.0;36.5
9666;DHT22;4871;52.004;5.924;2023-06-14T06:11:01;22.2;36.5
9666;DHT22;4871;52.004;5.924;2023-06-14T06:12:00;22.2;36.1
9666;DHT22;4871;52.004;5.924;2023-06-14T06:13:00;22.3;36.0
9666;DHT22;4871;52.004;5.924;2023-06-14T06:14:00;22.3;36.0
9666;DHT22;4871;52.004;5.924;2023-06-14T06:15:00;22.4;35.6
9666;DHT22;4871;52.004;5.924;2023-06-14T06:16:00;22.5;35.5
9666;DHT22;4871;52.004;5.924;2023-06-14T06:17:00;22.5;36.1
9666;DHT22;4871;52.004;5.924;2023-06-14T06:18:00;22.6;36.1
9666;DHT22;4871;52.004;5.924;2023-06-14T06:19:00;22.6;36.0
9666;DHT22;4871;52.004;5.924;2023-06-14T06:20:00;22.6;35.6
9666;DHT22;4871;52.004;5.924;2023-06-14T06:21:00;22.7;35.9
9666;DHT22;4871;52.004;5.924;2023-06-14T06:22:00;22.8;35.8
9666;DHT22;4871;52.004;5.924;2023-06-14T06:23:00;22.8;35.6
9666;DHT22;4871;52.004;5.924;2023-06-14T06:24:04;22.9;35.6
9666;DHT22;4871;52.004;5.924;2023-06-14T06:25:00;22.9;35.8
9666;DHT22;4871;52.004;5.924;2023-06-14T06:26:00;23.0;35.3
9666;DHT22;4871;52.004;5.924;2023-06-14T06:27:00;23.0;35.1
9666;DHT22;4871;52.004;5.924;2023-06-14T06:28:00;23.1;35.3
9666;DHT22;4871;52.004;5.924;2023-06-14T06:29:00;23.1;35.3
9666;DHT22;4871;52.004;5.924;2023-06-14T06:30:00;23.1;35.3
9666;DHT22;4871;52.004;5.924;2023-06-14T06:31:00;23.2;35.1
9666;DHT22;4871;52.004;5.924;2023-06-14T06:32:00;23.3;35.3
9666;DHT22;4871;52.004;5.924;2023-06-14T06:33:00;23.3;35.2
9666;DHT22;4871;52.004;5.924;2023-06-14T06:34:00;23.4;35.1
9666;DHT22;4871;52.004;5.924;2023-06-14T06:35:00;23.5;34.8
9666;DHT22;4871;52.004;5.924;2023-06-14T06:36:00;23.6;34.8
9666;DHT22;4871;52.004;5.924;2023-06-14T06:37:01;23.6;34.7
9666;DHT22;4871;52.004;5.924;2023-06-14T06:38:01;23.6;34.7
9666;DHT22;4871;52.004;5.924;2023-06-14T06:39:00;23.7;35.0
9666;DHT22;4871;52.004;5.924;2023-06-14T06:40:00;23.8;34.9
9666;DHT22;4871;52.004;5.924;2023-06-14T06:41:00;23.9;34.1
9666;DHT22;4871;52.004;5.924;2023-06-14T06:42:00;23.9;34.2
9666;DHT22;4871;52.004;5.924;2023-06-14T06:43:00;24.0;34.4
9666;DHT22;4871;52.004;5.924;2023-06-14T06:44:00;24.0;34.3